Terminal Aerodrome Forecast
Issued by NWS

Home | Current Version | Previous Version | Text Only | Print | Product List | Glossary On
Versions: 1 2 3 4 5 6 7 8 9 10 11 12 13 14 15
777
FTUS42 TJSJ 271821 CCA
TAFIST
TAF COR
TIST 271821Z 2718/2818 12011KT P6SM VCSH SCT030 SCT050
     FM272300 08005KT P6SM FEW025 FEW040
     FM281400 13010KT P6SM SCT030=

USA.gov is the U.S. government's official web portal to all federal, state and local government web resources and services.